createdAt,value
2018-06-05T00:02:42.727Z,100791.14
2018-06-05T00:07:45.939Z,100788.33
2018-06-05T00:12:49.045Z,100783.34
2018-06-05T00:17:52.161Z,100793.10
2018-06-05T00:22:55.368Z,100788.55
2018-06-05T00:27:58.495Z,100791.48
2018-06-05T00:33:01.743Z,100785.94
2018-06-05T00:38:05.196Z,100789.30
2018-06-05T00:43:08.619Z,100789.63
2018-06-05T00:48:12.002Z,100791.66
2018-06-05T00:53:15.711Z,100789.06
2018-06-05T00:58:18.944Z,100796.66
2018-06-05T01:03:22.321Z,100794.27
2018-06-05T01:08:25.447Z,100794.08
2018-06-05T01:13:28.601Z,100787.38
2018-06-05T01:18:31.742Z,100784.08
2018-06-05T01:23:34.970Z,100783.41
2018-06-05T01:28:38.119Z,100784.02
2018-06-05T01:33:41.299Z,100788.27
2018-06-05T01:38:44.519Z,100783.70
2018-06-05T01:43:47.748Z,100779.14
2018-06-05T01:48:50.866Z,100779.30
2018-06-05T01:53:54.208Z,100781.68
2018-06-05T01:58:58.512Z,100769.75
2018-06-05T02:04:01.915Z,100764.89
2018-06-05T02:09:05.925Z,100761.02
2018-06-05T02:14:09.111Z,100763.73
2018-06-05T02:19:12.233Z,100762.67
2018-06-05T02:24:15.799Z,100771.39
2018-06-05T02:29:18.969Z,100770.05
2018-06-05T02:34:22.460Z,100775.22
2018-06-05T02:39:26.620Z,100775.02
2018-06-05T02:44:29.934Z,100775.83
2018-06-05T02:49:33.140Z,100783.58
2018-06-05T02:54:36.402Z,100783.73
2018-06-05T02:59:39.561Z,100789.97
2018-06-05T03:04:42.700Z,100790.42
2018-06-05T03:09:45.877Z,100789.36
2018-06-05T03:14:49.513Z,100789.84
2018-06-05T03:19:52.961Z,100792.85
2018-06-05T03:24:56.341Z,100794.30
2018-06-05T03:29:59.798Z,100798.35
2018-06-05T03:35:03.370Z,100794.62
2018-06-05T03:40:08.680Z,100805.45
2018-06-05T03:45:16.730Z,100795.88
2018-06-05T03:50:23.111Z,100798.39
2018-06-05T03:55:26.740Z,100800.05
2018-06-05T04:00:30.176Z,100795.89
2018-06-05T04:05:33.364Z,100798.81
2018-06-05T04:10:40.961Z,100806.92
2018-06-05T04:15:44.194Z,100803.37
2018-06-05T04:20:47.680Z,100801.83
2018-06-05T04:25:50.975Z,100806.02
2018-06-05T04:30:54.214Z,100809.09
2018-06-05T04:36:05.592Z,100814.23
2018-06-05T04:41:08.760Z,100812.38
2018-06-05T04:46:12.060Z,100822.23
2018-06-05T04:51:15.515Z,100825.03
2018-06-05T04:56:18.835Z,100832.95
2018-06-05T05:01:22.336Z,100834.81
2018-06-05T05:06:27.390Z,100842.43
2018-06-05T05:11:30.799Z,100847.21
2018-06-05T05:16:33.965Z,100857.38
2018-06-05T05:21:37.115Z,100850.14
2018-06-05T05:26:40.431Z,100856.65
2018-06-05T05:31:44.200Z,100863.82
2018-06-05T05:36:47.333Z,100859.53
2018-06-05T05:41:50.456Z,100867.18
2018-06-05T05:46:53.724Z,100874.33
2018-06-05T05:51:58.371Z,100883.69
2018-06-05T05:57:01.607Z,100892.45
2018-06-05T06:02:04.871Z,100895.45
2018-06-05T06:07:07.993Z,100893.59
2018-06-05T06:12:11.111Z,100901.26
2018-06-05T06:17:14.337Z,100902.09
2018-06-05T06:22:17.564Z,100903.10
2018-06-05T06:27:20.711Z,100910.02
2018-06-05T06:32:23.898Z,100914.92
2018-06-05T06:37:28.190Z,100915.00
2018-06-05T06:42:31.367Z,100916.00
2018-06-05T06:47:34.488Z,100915.11
2018-06-05T06:52:37.702Z,100917.69
2018-06-05T06:57:41.037Z,100920.05
2018-06-05T07:02:44.211Z,100920.38
2018-06-05T07:07:47.320Z,100921.81
2018-06-05T07:12:50.436Z,100925.81
2018-06-05T07:17:53.571Z,100930.12
2018-06-05T07:22:56.869Z,100924.27
2018-06-05T07:28:00.076Z,100933.25
2018-06-05T07:33:03.583Z,100936.58
2018-06-05T07:38:06.776Z,100940.91
2018-06-05T07:43:09.950Z,100948.69
2018-06-05T07:48:13.139Z,100947.48
2018-06-05T07:53:16.307Z,100946.00
2018-06-05T07:58:20.135Z,100938.28
2018-06-05T08:03:23.210Z,100943.98
2018-06-05T08:08:26.427Z,100944.65
2018-06-05T08:13:29.593Z,100944.17
2018-06-05T08:18:32.794Z,100947.56
2018-06-05T08:23:35.983Z,100956.95
2018-06-05T08:28:39.141Z,100959.29
2018-06-05T08:33:42.247Z,100963.22
2018-06-05T08:38:45.424Z,100967.44
2018-06-05T08:43:48.555Z,100971.78
2018-06-05T08:48:52.205Z,100980.61
2018-06-05T08:53:55.404Z,100981.00
2018-06-05T08:58:58.678Z,100976.78
2018-06-05T09:04:01.910Z,100976.95
2018-06-05T09:09:07.381Z,100975.93
2018-06-05T09:14:10.543Z,100978.48
2018-06-05T09:19:13.645Z,100981.19
2018-06-05T09:24:16.816Z,100988.08
2018-06-05T09:29:19.969Z,100991.20
2018-06-05T09:34:23.121Z,100988.41
2018-06-05T09:39:26.280Z,100986.12
2018-06-05T09:44:29.470Z,100974.10
2018-06-05T09:49:32.717Z,100976.99
2018-06-05T09:54:35.996Z,100980.72
2018-06-05T09:59:39.096Z,100981.52
2018-06-05T10:04:42.252Z,100977.66
2018-06-05T10:09:45.715Z,100982.36
2018-06-05T10:14:49.041Z,100982.97
2018-06-05T10:19:52.185Z,100968.67
2018-06-05T10:24:55.444Z,100967.31
2018-06-05T10:29:58.765Z,100974.98
2018-06-05T10:35:02.198Z,100976.16
2018-06-05T10:40:05.320Z,100977.88
2018-06-05T10:45:08.442Z,100987.72
2018-06-05T10:50:11.573Z,100976.25
2018-06-05T10:55:14.707Z,100978.05
2018-06-05T11:00:17.896Z,100976.08
2018-06-05T11:05:20.981Z,100985.45
2018-06-05T11:10:24.158Z,100982.32
2018-06-05T11:15:27.408Z,100993.02
2018-06-05T11:20:37.738Z,100982.72
2018-06-05T11:25:41.069Z,100986.28
2018-06-05T11:30:44.443Z,100980.80
2018-06-05T11:35:47.800Z,100978.30
2018-06-05T11:40:51.203Z,100985.34
2018-06-05T11:45:54.301Z,100986.34
2018-06-05T11:50:57.944Z,100994.38
2018-06-05T11:56:01.247Z,100993.98
2018-06-05T12:01:04.397Z,100991.20
2018-06-05T12:06:07.848Z,100992.25
2018-06-05T12:11:10.994Z,100995.28
2018-06-05T12:16:14.134Z,100989.95
2018-06-05T12:21:17.492Z,100986.81
2018-06-05T12:26:20.872Z,100988.96
2018-06-05T12:31:24.787Z,100985.49
2018-06-05T12:36:28.174Z,100974.94
2018-06-05T12:41:31.319Z,100978.88
2018-06-05T12:46:34.485Z,100973.44
2018-06-05T12:51:37.743Z,100970.89
2018-06-05T12:56:40.885Z,100961.28
2018-06-05T13:01:44.026Z,100954.92
2018-06-05T13:06:47.259Z,100957.22
2018-06-05T13:11:50.623Z,100954.58
2018-06-05T13:16:53.909Z,100951.56
2018-06-05T13:21:57.621Z,100961.39
2018-06-05T13:27:03.450Z,100961.78
2018-06-05T13:32:06.943Z,100957.65
2018-06-05T13:37:10.628Z,100951.79
2018-06-05T13:42:14.036Z,100939.16
2018-06-05T13:47:17.125Z,100944.12
2018-06-05T13:52:20.314Z,100945.27
2018-06-05T13:57:23.498Z,100943.55
2018-06-05T14:02:26.661Z,100934.23
2018-06-05T14:07:29.829Z,100934.47
2018-06-05T14:12:33.293Z,100931.23
2018-06-05T14:17:36.503Z,100924.38
2018-06-05T14:22:39.686Z,100923.33
2018-06-05T14:27:42.858Z,100922.09
2018-06-05T14:32:46.001Z,100921.95
2018-06-05T14:37:49.095Z,100915.58
2018-06-05T14:42:52.234Z,100906.81
2018-06-05T14:47:55.335Z,100916.44
2018-06-05T14:52:58.430Z,100922.05
2018-06-05T14:58:01.752Z,100909.39
2018-06-05T15:03:05.303Z,100904.11
2018-06-05T15:08:08.921Z,100898.92
2018-06-05T15:13:12.155Z,100895.57
2018-06-05T15:18:15.278Z,100896.11
2018-06-05T15:23:19.062Z,100888.64
2018-06-05T15:28:22.187Z,100891.05
2018-06-05T15:33:25.287Z,100887.23
2018-06-05T15:38:28.440Z,100886.38
2018-06-05T15:43:31.563Z,100883.96
2018-06-05T15:48:34.671Z,100876.86
2018-06-05T15:53:39.861Z,100878.16
2018-06-05T15:58:43.050Z,100866.48
2018-06-05T16:03:46.275Z,100871.30
2018-06-05T16:08:49.520Z,100877.64
2018-06-05T16:13:52.776Z,100872.15
2018-06-05T16:18:56.020Z,100877.59
2018-06-05T16:23:59.126Z,100873.00
2018-06-05T16:29:03.425Z,100870.54
2018-06-05T16:34:06.561Z,100873.23
2018-06-05T16:39:09.687Z,100876.50
2018-06-05T16:44:12.820Z,100877.52
2018-06-05T16:49:16.522Z,100875.09
2018-06-05T16:54:19.781Z,100877.56
2018-06-05T16:59:22.976Z,100875.28
2018-06-05T17:04:26.282Z,100884.87
2018-06-05T17:09:29.482Z,100877.66
2018-06-05T17:14:32.639Z,100877.63
2018-06-05T17:19:35.768Z,100874.56
2018-06-05T17:24:39.451Z,100873.00
2018-06-05T17:29:42.638Z,100872.69
2018-06-05T17:34:46.747Z,100875.20
2018-06-05T17:39:49.942Z,100876.28
2018-06-05T17:44:53.206Z,100881.31
2018-06-05T17:49:56.470Z,100880.86
2018-06-05T17:54:59.685Z,100893.27
2018-06-05T18:00:03.083Z,100891.55
2018-06-05T18:05:06.256Z,100890.34
2018-06-05T18:10:09.603Z,100892.00
2018-06-05T18:15:12.711Z,100904.23
2018-06-05T18:20:16.091Z,100908.18
2018-06-05T18:25:19.423Z,100907.67
2018-06-05T18:30:22.904Z,100910.61
2018-06-05T18:35:26.521Z,100919.52
2018-06-05T18:40:30.454Z,100921.09
2018-06-05T18:45:33.615Z,100924.75
2018-06-05T18:50:36.708Z,100944.72
2018-06-05T18:55:42.343Z,100952.50
2018-06-05T19:00:45.661Z,100964.44
2018-06-05T19:05:58.075Z,100966.98
2018-06-05T19:11:02.011Z,100983.81
2018-06-05T19:16:06.453Z,100993.36
2018-06-05T19:21:11.497Z,101003.01
2018-06-05T19:26:15.030Z,101011.45
2018-06-05T19:31:19.434Z,101018.22
2018-06-05T19:36:24.892Z,101025.47
2018-06-05T19:41:41.107Z,101041.30
2018-06-05T19:46:49.767Z,101050.08
2018-06-05T19:51:54.038Z,101060.20
2018-06-05T19:56:57.841Z,101065.56
2018-06-05T20:02:01.306Z,101069.64
2018-06-05T20:07:04.465Z,101081.18
2018-06-05T20:12:09.774Z,101083.04
2018-06-05T20:17:40.011Z,101093.48
2018-06-05T20:23:08.551Z,101097.30
2018-06-05T20:28:35.564Z,101099.06
2018-06-05T20:34:05.575Z,101111.88
2018-06-05T20:39:37.445Z,101112.66
2018-06-05T20:45:00.803Z,101112.90
2018-06-05T20:50:26.413Z,101129.19
2018-06-05T20:55:52.385Z,101128.06
2018-06-05T21:01:16.434Z,101140.42
2018-06-05T21:06:20.681Z,101145.62
2018-06-05T21:11:23.886Z,101150.94
2018-06-05T21:16:27.105Z,101154.96
2018-06-05T21:21:31.784Z,101160.43
2018-06-05T21:26:34.867Z,101161.65
2018-06-05T21:31:37.993Z,101173.72
2018-06-05T21:36:41.123Z,101176.70
2018-06-05T21:41:44.320Z,101187.11
2018-06-05T21:46:47.596Z,101189.02
2018-06-05T21:51:50.780Z,101187.56
2018-06-05T21:56:53.955Z,101196.52
2018-06-05T22:01:57.157Z,101186.81
2018-06-05T22:07:00.236Z,101187.90
2018-06-05T22:12:03.400Z,101197.84
2018-06-05T22:17:06.592Z,101207.11
2018-06-05T22:22:09.694Z,101214.02
2018-06-05T22:27:12.786Z,101211.94
2018-06-05T22:32:16.045Z,101218.97
2018-06-05T22:37:19.374Z,101214.34
2018-06-05T22:42:22.593Z,101229.92
2018-06-05T22:47:25.717Z,101232.28
2018-06-05T22:52:29.001Z,101238.39
2018-06-05T22:57:32.151Z,101229.07
2018-06-05T23:02:35.369Z,101230.52
2018-06-05T23:07:38.533Z,101233.52
2018-06-05T23:12:41.674Z,101227.86
2018-06-05T23:17:44.917Z,101233.66
2018-06-05T23:22:48.371Z,101229.13
2018-06-05T23:27:51.743Z,101233.53
2018-06-05T23:32:55.765Z,101240.34
2018-06-05T23:37:58.942Z,101240.17
2018-06-05T23:43:02.146Z,101240.55
2018-06-05T23:48:05.335Z,101241.22
2018-06-05T23:53:08.479Z,101249.80
2018-06-05T23:58:11.639Z,101251.72
